createdAt,value
2022-07-25T00:01:15.787Z,20.83
2022-07-25T00:03:47.117Z,20.91
2022-07-25T00:06:19.924Z,21.02
2022-07-25T00:08:51.361Z,21.10
2022-07-25T00:11:22.711Z,21.15
2022-07-25T00:13:53.998Z,21.24
2022-07-25T00:16:25.379Z,21.25
2022-07-25T00:18:56.785Z,21.35
2022-07-25T00:21:28.415Z,21.39
2022-07-25T00:23:59.860Z,21.42
2022-07-25T00:26:32.045Z,21.47
2022-07-25T00:29:05.728Z,21.47
2022-07-25T00:31:37.182Z,21.56
2022-07-25T00:34:09.078Z,21.66
2022-07-25T00:36:40.826Z,21.65
2022-07-25T00:39:12.442Z,21.75
2022-07-25T00:41:44.424Z,21.77
2022-07-25T00:44:27.337Z,21.80
2022-07-25T00:46:59.034Z,21.83
2022-07-25T00:49:30.595Z,21.88
2022-07-25T00:52:02.007Z,21.90
2022-07-25T00:54:33.713Z,21.91
2022-07-25T00:57:05.040Z,21.93
2022-07-25T00:59:36.363Z,21.94
2022-07-25T01:02:07.859Z,21.89
2022-07-25T01:04:39.936Z,21.94
2022-07-25T01:07:11.403Z,21.92
2022-07-25T01:09:42.959Z,21.92
2022-07-25T01:12:14.323Z,21.91
2022-07-25T01:14:45.645Z,21.93
2022-07-25T01:17:17.062Z,21.94
2022-07-25T01:19:48.548Z,21.96
2022-07-25T01:22:19.949Z,21.97
2022-07-25T01:24:51.242Z,21.95
2022-07-25T01:27:23.011Z,21.92
2022-07-25T01:29:54.395Z,21.91
2022-07-25T01:32:25.710Z,21.88
2022-07-25T01:34:57.035Z,21.88
2022-07-25T01:37:28.406Z,21.87
2022-07-25T01:39:59.845Z,21.85
2022-07-25T01:42:32.140Z,21.77
2022-07-25T01:45:04.847Z,21.75
2022-07-25T01:47:36.229Z,21.61
2022-07-25T01:50:08.272Z,21.65
2022-07-25T01:52:39.804Z,21.60
2022-07-25T01:55:11.232Z,21.61
2022-07-25T01:57:49.368Z,21.61
2022-07-25T02:00:21.674Z,21.59
2022-07-25T02:03:11.468Z,21.54
2022-07-25T02:05:42.770Z,21.49
2022-07-25T02:08:14.096Z,21.55
2022-07-25T02:10:46.521Z,21.53
2022-07-25T02:13:18.116Z,21.50
2022-07-25T02:15:49.872Z,21.48
2022-07-25T02:18:21.217Z,21.43
2022-07-25T02:20:52.629Z,21.39
2022-07-25T02:23:23.989Z,21.35
2022-07-25T02:25:55.291Z,21.38
2022-07-25T02:28:26.760Z,21.40
2022-07-25T02:30:58.141Z,21.40
2022-07-25T02:33:29.783Z,21.39
2022-07-25T02:36:01.167Z,21.40
2022-07-25T02:38:32.531Z,21.45
2022-07-25T02:41:04.541Z,21.48
2022-07-25T02:43:35.941Z,21.52
2022-07-25T02:46:07.386Z,21.54
2022-07-25T02:48:38.775Z,21.56
2022-07-25T02:51:10.253Z,21.56
2022-07-25T02:53:56.601Z,21.53
2022-07-25T02:56:29.941Z,21.56
2022-07-25T02:59:01.791Z,21.56
2022-07-25T03:01:33.394Z,21.56
2022-07-25T03:04:05.446Z,21.54
2022-07-25T03:06:36.901Z,21.51
2022-07-25T03:09:08.273Z,21.51
2022-07-25T03:11:39.626Z,21.56
2022-07-25T03:14:11.100Z,21.54
2022-07-25T03:16:42.458Z,21.55
2022-07-25T03:19:14.349Z,21.57
2022-07-25T03:21:46.138Z,21.58
2022-07-25T03:24:18.943Z,21.58
2022-07-25T03:26:50.420Z,21.59
2022-07-25T03:29:21.806Z,21.59
2022-07-25T03:31:53.239Z,21.56
2022-07-25T03:34:25.159Z,21.57
2022-07-25T03:36:56.710Z,21.58
2022-07-25T03:39:28.803Z,21.54
2022-07-25T03:42:00.204Z,21.57
2022-07-25T03:44:31.581Z,21.61
2022-07-25T03:47:02.900Z,21.63
2022-07-25T03:49:34.204Z,21.64
2022-07-25T03:52:05.625Z,21.70
2022-07-25T03:54:36.958Z,21.73
2022-07-25T03:57:08.556Z,21.77
2022-07-25T03:59:39.906Z,21.80
2022-07-25T04:02:11.353Z,21.84
2022-07-25T04:04:42.830Z,21.87
2022-07-25T04:07:14.226Z,21.88
2022-07-25T04:09:45.586Z,21.95
2022-07-25T04:12:16.924Z,21.99
2022-07-25T04:14:48.272Z,22.03
2022-07-25T04:17:19.990Z,22.09
2022-07-25T04:19:52.609Z,22.14
2022-07-25T04:22:24.089Z,22.20
2022-07-25T04:24:55.445Z,22.26
2022-07-25T04:27:26.795Z,22.29
2022-07-25T04:29:59.360Z,22.40
2022-07-25T04:32:30.690Z,22.42
2022-07-25T04:35:01.995Z,22.54
2022-07-25T04:37:33.339Z,22.63
2022-07-25T04:40:05.634Z,22.73
2022-07-25T04:42:36.925Z,22.85
2022-07-25T04:45:08.866Z,22.99
2022-07-25T04:47:40.635Z,23.11
2022-07-25T04:50:12.803Z,23.25
2022-07-25T04:52:44.296Z,23.40
2022-07-25T04:55:15.823Z,23.45
2022-07-25T04:57:47.315Z,23.62
2022-07-25T05:00:18.696Z,23.74
2022-07-25T05:02:51.422Z,23.87
2022-07-25T05:05:22.845Z,24.00
2022-07-25T05:07:59.075Z,24.14
2022-07-25T05:10:30.629Z,24.24
2022-07-25T05:13:01.975Z,24.32
2022-07-25T05:15:33.285Z,24.39
2022-07-25T05:18:04.875Z,24.43
2022-07-25T05:20:36.272Z,24.45
2022-07-25T05:23:07.678Z,24.46
2022-07-25T05:25:39.096Z,24.47
2022-07-25T05:28:10.445Z,24.49
2022-07-25T05:30:41.834Z,24.51
2022-07-25T05:33:13.175Z,24.55
2022-07-25T05:35:44.523Z,24.65
2022-07-25T05:38:15.845Z,24.78
2022-07-25T05:40:47.160Z,24.93
2022-07-25T05:43:19.131Z,25.05
2022-07-25T05:45:50.435Z,25.16
2022-07-25T05:48:21.841Z,25.26
2022-07-25T05:50:53.177Z,25.29
2022-07-25T05:53:25.028Z,25.39
2022-07-25T05:55:56.400Z,25.58
2022-07-25T05:58:30.030Z,25.74
2022-07-25T06:01:01.601Z,26.00
2022-07-25T06:03:34.262Z,26.25
2022-07-25T06:06:08.585Z,26.53
2022-07-25T06:08:40.283Z,26.70
2022-07-25T06:11:11.779Z,26.84
2022-07-25T06:13:44.181Z,26.94
2022-07-25T06:16:15.712Z,27.00
2022-07-25T06:18:47.162Z,27.02
2022-07-25T06:21:19.455Z,27.18
2022-07-25T06:23:50.821Z,27.39
2022-07-25T06:26:22.257Z,28.20
2022-07-25T06:28:53.659Z,28.88
2022-07-25T06:31:27.706Z,29.09
2022-07-25T06:33:59.276Z,29.01
2022-07-25T06:36:32.674Z,28.87
2022-07-25T06:39:04.341Z,28.82
2022-07-25T06:41:37.525Z,28.92
2022-07-25T06:44:09.218Z,28.95
2022-07-25T06:46:41.206Z,29.12
2022-07-25T06:49:12.835Z,29.34
2022-07-25T06:51:44.401Z,29.59
2022-07-25T06:54:15.743Z,29.92
2022-07-25T06:56:47.101Z,30.11
2022-07-25T06:59:18.521Z,30.13
2022-07-25T07:01:51.793Z,30.00
2022-07-25T07:04:23.314Z,29.89
2022-07-25T07:06:54.670Z,29.82
2022-07-25T07:09:25.990Z,29.77
2022-07-25T07:11:57.435Z,29.95
2022-07-25T07:14:28.889Z,30.05
2022-07-25T07:17:00.379Z,30.13
2022-07-25T07:19:31.824Z,30.26
2022-07-25T07:22:03.682Z,30.36
2022-07-25T07:24:38.804Z,30.49
2022-07-25T07:27:15.341Z,30.54
2022-07-25T07:29:51.070Z,30.60
2022-07-25T07:32:22.471Z,30.68
2022-07-25T07:34:53.810Z,30.82
2022-07-25T07:37:25.197Z,30.95
2022-07-25T07:39:56.486Z,31.08
2022-07-25T07:42:27.801Z,31.20
2022-07-25T07:44:59.430Z,31.32
2022-07-25T07:47:30.789Z,31.47
2022-07-25T07:50:02.095Z,31.59
2022-07-25T07:52:33.395Z,31.65
2022-07-25T07:55:23.755Z,31.62
2022-07-25T07:57:56.069Z,31.62
2022-07-25T08:00:30.918Z,31.77
2022-07-25T08:03:03.417Z,31.92
2022-07-25T08:05:43.192Z,32.02
2022-07-25T08:08:15.177Z,32.11
2022-07-25T08:10:48.631Z,32.27
2022-07-25T08:13:23.997Z,32.45
2022-07-25T08:15:58.041Z,32.59
2022-07-25T08:18:30.191Z,32.63
2022-07-25T08:21:04.084Z,32.64
2022-07-25T08:23:38.532Z,32.76
2022-07-25T08:26:09.883Z,32.98
2022-07-25T08:28:41.540Z,33.09
2022-07-25T08:31:12.904Z,33.08
2022-07-25T08:33:44.298Z,33.19
2022-07-25T08:36:15.617Z,33.31
2022-07-25T08:38:46.990Z,33.39
2022-07-25T08:41:18.308Z,33.52
2022-07-25T08:43:56.373Z,33.64
2022-07-25T08:46:30.086Z,33.75
2022-07-25T08:49:02.536Z,33.99
2022-07-25T08:51:34.387Z,34.18
2022-07-25T08:54:06.776Z,34.28
2022-07-25T08:56:38.724Z,34.48
2022-07-25T08:59:10.187Z,34.78
2022-07-25T09:01:41.721Z,34.92
2022-07-25T09:04:13.280Z,34.96
2022-07-25T09:06:51.785Z,34.75
2022-07-25T09:09:33.122Z,34.55
2022-07-25T09:12:05.872Z,34.46
2022-07-25T09:14:44.076Z,34.57
2022-07-25T09:17:22.648Z,34.72
2022-07-25T09:19:59.281Z,34.94
2022-07-25T09:22:30.636Z,35.06
2022-07-25T09:25:01.971Z,35.04
2022-07-25T09:27:34.478Z,35.15
2022-07-25T09:30:14.584Z,35.15
2022-07-25T09:32:46.277Z,35.20
2022-07-25T09:35:17.688Z,35.26
2022-07-25T09:37:49.005Z,35.28
2022-07-25T09:40:20.344Z,35.40
2022-07-25T09:42:52.395Z,35.46
2022-07-25T09:45:26.066Z,35.59
2022-07-25T09:48:04.117Z,35.85
2022-07-25T09:50:35.996Z,36.14
2022-07-25T09:53:07.328Z,36.27
2022-07-25T09:55:38.677Z,36.32
2022-07-25T09:58:10.006Z,36.40
2022-07-25T10:00:42.546Z,36.40
2022-07-25T10:03:32.420Z,36.32
2022-07-25T10:06:14.960Z,36.30
2022-07-25T10:08:47.761Z,36.24
2022-07-25T10:11:24.442Z,36.26
2022-07-25T10:13:56.607Z,36.29
2022-07-25T10:16:28.054Z,36.32
2022-07-25T10:18:59.615Z,36.32
2022-07-25T10:21:31.151Z,36.46
2022-07-25T10:24:05.916Z,36.57
2022-07-25T10:26:39.983Z,36.67
2022-07-25T10:29:12.728Z,36.74
2022-07-25T10:31:51.502Z,36.61
2022-07-25T10:34:33.251Z,36.52
2022-07-25T10:37:21.244Z,36.44
2022-07-25T10:39:52.729Z,36.44
2022-07-25T10:42:24.089Z,36.51
2022-07-25T10:44:57.539Z,36.58
2022-07-25T10:47:29.013Z,36.56
2022-07-25T10:53:00.347Z,36.46
2022-07-25T10:55:36.589Z,36.37
2022-07-25T10:58:22.323Z,36.25
2022-07-25T11:00:53.936Z,36.18
2022-07-25T11:03:26.263Z,36.10
2022-07-25T11:05:57.598Z,36.00
2022-07-25T11:08:35.750Z,35.97
2022-07-25T11:11:08.081Z,35.88
2022-07-25T11:13:41.826Z,35.91
2022-07-25T11:16:13.260Z,35.90
2022-07-25T11:18:44.641Z,35.90
2022-07-25T11:21:15.934Z,35.85
2022-07-25T11:23:53.685Z,35.88
2022-07-25T11:26:25.058Z,35.94
2022-07-25T11:28:56.386Z,36.07
2022-07-25T11:31:27.810Z,36.22
2022-07-25T11:33:59.275Z,36.40
2022-07-25T11:36:30.858Z,36.53
2022-07-25T11:39:02.363Z,36.65
2022-07-25T11:41:33.756Z,36.65
2022-07-25T11:44:05.572Z,36.50
2022-07-25T11:46:47.154Z,36.45
2022-07-25T11:49:18.566Z,36.25
2022-07-25T11:51:50.191Z,36.00
2022-07-25T11:54:21.646Z,35.99
2022-07-25T11:56:53.040Z,36.13
2022-07-25T11:59:25.287Z,36.31
2022-07-25T12:01:57.463Z,36.47
2022-07-25T12:04:28.876Z,36.53
2022-07-25T12:07:05.109Z,36.61
2022-07-25T12:09:36.424Z,36.62
2022-07-25T12:12:08.130Z,36.56
2022-07-25T12:14:43.783Z,36.59
2022-07-25T12:17:15.772Z,36.84
2022-07-25T12:19:47.339Z,37.13
2022-07-25T12:22:18.796Z,36.97
2022-07-25T12:24:50.193Z,36.69
2022-07-25T12:27:21.671Z,36.43
2022-07-25T12:29:53.004Z,36.25
2022-07-25T12:32:24.439Z,36.12
2022-07-25T12:34:55.740Z,36.01
2022-07-25T12:37:27.411Z,35.81
2022-07-25T12:39:58.835Z,35.61
2022-07-25T12:42:30.295Z,35.49
2022-07-25T12:45:01.893Z,35.46
2022-07-25T12:47:33.262Z,35.35
2022-07-25T12:50:05.805Z,35.21
2022-07-25T12:52:38.316Z,34.95
2022-07-25T12:55:13.248Z,34.76
2022-07-25T12:57:44.906Z,34.68
2022-07-25T13:00:20.213Z,34.60
2022-07-25T13:02:53.070Z,34.76
2022-07-25T13:05:25.451Z,35.02
2022-07-25T13:07:56.793Z,35.10
2022-07-25T13:10:28.178Z,35.18
2022-07-25T13:12:59.492Z,35.17
2022-07-25T13:15:31.082Z,35.20
2022-07-25T13:18:03.333Z,35.27
2022-07-25T13:20:37.298Z,35.32
2022-07-25T13:23:08.626Z,35.27
2022-07-25T13:25:40.171Z,35.16
2022-07-25T13:28:11.613Z,35.06
2022-07-25T13:30:42.971Z,35.00
2022-07-25T13:33:14.399Z,35.10
2022-07-25T13:35:45.710Z,35.29
2022-07-25T13:38:17.036Z,35.44
2022-07-25T13:40:48.420Z,35.39
2022-07-25T13:43:19.719Z,35.46
2022-07-25T13:45:51.170Z,35.57
2022-07-25T13:48:30.604Z,35.62
2022-07-25T13:51:03.609Z,35.58
2022-07-25T13:53:34.958Z,35.82
2022-07-25T13:56:06.858Z,35.96
2022-07-25T13:58:38.544Z,36.05
2022-07-25T14:01:11.477Z,36.05
2022-07-25T14:03:42.961Z,35.92
2022-07-25T14:06:14.321Z,35.69
2022-07-25T14:08:45.801Z,35.51
2022-07-25T14:11:17.293Z,35.34
2022-07-25T14:13:48.623Z,35.27
2022-07-25T14:16:20.154Z,35.25
2022-07-25T14:18:51.756Z,35.19
2022-07-25T14:21:23.218Z,35.03
2022-07-25T14:23:54.639Z,34.98
2022-07-25T14:26:28.115Z,35.00
2022-07-25T14:28:59.527Z,34.81
2022-07-25T14:31:32.758Z,34.58
2022-07-25T14:34:04.170Z,34.31
2022-07-25T14:36:35.951Z,34.09
2022-07-25T14:39:08.040Z,33.68
2022-07-25T14:41:40.002Z,33.41
2022-07-25T14:44:11.342Z,33.16
2022-07-25T14:46:45.695Z,32.88
2022-07-25T14:49:17.325Z,32.19
2022-07-25T14:51:49.424Z,31.40
2022-07-25T14:54:20.948Z,30.78
2022-07-25T14:56:52.353Z,30.11
2022-07-25T14:59:24.386Z,29.55
2022-07-25T15:01:55.891Z,29.21
2022-07-25T15:04:27.348Z,28.90
2022-07-25T15:06:58.869Z,28.51
2022-07-25T15:09:30.177Z,27.78
2022-07-25T15:12:01.531Z,27.00
2022-07-25T15:14:32.848Z,26.17
2022-07-25T15:17:04.355Z,25.35
2022-07-25T15:19:35.672Z,24.71
2022-07-25T15:22:07.057Z,24.10
2022-07-25T15:25:04.409Z,23.84
2022-07-25T15:27:29.856Z,23.37
2022-07-25T15:30:01.469Z,22.91
2022-07-25T15:32:32.893Z,22.55
2022-07-25T15:35:04.730Z,22.18
2022-07-25T15:37:36.277Z,22.17
2022-07-25T15:40:08.374Z,22.32
2022-07-25T15:42:40.053Z,22.18
2022-07-25T15:48:03.671Z,22.17
2022-07-25T15:50:45.818Z,22.21
2022-07-25T15:53:17.625Z,22.12
2022-07-25T15:55:49.173Z,22.00
2022-07-25T15:58:20.486Z,22.14
2022-07-25T16:00:51.880Z,22.10
2022-07-25T16:03:23.907Z,22.06
2022-07-25T16:05:57.055Z,22.00
2022-07-25T16:08:28.480Z,21.96
2022-07-25T16:11:00.042Z,22.02
2022-07-25T16:13:31.503Z,22.22
2022-07-25T16:16:02.926Z,22.31
2022-07-25T16:18:34.402Z,22.25
2022-07-25T16:21:06.174Z,22.12
2022-07-25T16:23:42.581Z,21.92
2022-07-25T16:26:16.624Z,21.70
2022-07-25T16:28:48.639Z,21.58
2022-07-25T16:31:19.983Z,21.45
2022-07-25T16:33:51.309Z,21.52
2022-07-25T16:36:25.999Z,21.56
2022-07-25T16:38:59.237Z,21.64
2022-07-25T16:41:30.595Z,21.68
2022-07-25T16:44:02.817Z,21.71
2022-07-25T16:46:34.235Z,21.92
2022-07-25T16:49:06.210Z,22.07
2022-07-25T16:51:37.753Z,22.34
2022-07-25T16:54:10.589Z,22.47
2022-07-25T16:56:42.578Z,22.54
2022-07-25T16:59:13.940Z,22.62
2022-07-25T17:01:46.418Z,22.67
2022-07-25T17:04:18.025Z,22.70
2022-07-25T17:06:49.419Z,22.58
2022-07-25T17:09:21.638Z,22.50
2022-07-25T17:11:53.100Z,22.45
2022-07-25T17:14:29.939Z,22.44
2022-07-25T17:17:01.880Z,22.34
2022-07-25T17:19:36.198Z,22.51
2022-07-25T17:22:10.873Z,22.54
2022-07-25T17:24:42.224Z,22.59
2022-07-25T17:27:14.538Z,22.63
2022-07-25T17:29:45.911Z,22.62
2022-07-25T17:32:17.262Z,22.81
2022-07-25T17:34:48.644Z,22.92
2022-07-25T17:37:20.241Z,22.90
2022-07-25T17:39:51.650Z,22.78
2022-07-25T17:42:23.857Z,22.75
2022-07-25T17:44:55.438Z,22.71
2022-07-25T17:47:26.764Z,22.78
2022-07-25T17:49:58.071Z,22.89
2022-07-25T17:52:30.070Z,22.95
2022-07-25T17:55:03.425Z,22.98
2022-07-25T17:57:35.107Z,22.90
2022-07-25T18:00:07.271Z,22.85
2022-07-25T18:02:39.712Z,22.84
2022-07-25T18:05:11.307Z,22.78
2022-07-25T18:07:49.326Z,22.73
2022-07-25T18:10:21.739Z,22.60
2022-07-25T18:12:53.101Z,22.57
2022-07-25T18:15:24.580Z,22.46
2022-07-25T18:17:55.914Z,22.41
2022-07-25T18:20:28.109Z,22.37
2022-07-25T18:22:59.559Z,22.46
2022-07-25T18:25:31.028Z,22.54
2022-07-25T18:28:02.433Z,22.48
2022-07-25T18:30:33.869Z,22.41
2022-07-25T18:33:05.188Z,22.31
2022-07-25T18:35:36.639Z,22.23
2022-07-25T18:38:08.139Z,22.20
2022-07-25T18:40:39.562Z,22.13
2022-07-25T18:43:11.687Z,22.09
2022-07-25T18:45:43.263Z,22.08
2022-07-25T18:48:16.355Z,22.07
2022-07-25T18:50:47.714Z,22.08
2022-07-25T18:53:19.019Z,22.07
2022-07-25T18:55:50.468Z,22.14
2022-07-25T18:58:21.839Z,22.22
2022-07-25T19:00:53.240Z,22.19
2022-07-25T19:03:24.668Z,22.24
2022-07-25T19:06:01.228Z,22.16
2022-07-25T19:08:35.023Z,22.18
2022-07-25T19:11:06.981Z,22.11
2022-07-25T19:13:49.586Z,22.09
2022-07-25T19:16:21.864Z,22.02
2022-07-25T19:18:53.551Z,21.90
2022-07-25T19:21:25.093Z,21.87
2022-07-25T19:23:56.447Z,21.79
2022-07-25T19:26:28.188Z,21.67
2022-07-25T19:28:59.616Z,21.66
2022-07-25T19:31:31.077Z,21.59
2022-07-25T19:34:02.405Z,21.59
2022-07-25T19:36:33.965Z,21.57
2022-07-25T19:39:06.158Z,21.50
2022-07-25T19:41:42.100Z,21.38
2022-07-25T19:44:16.101Z,21.39
2022-07-25T19:46:48.942Z,21.39
2022-07-25T19:49:20.518Z,21.37
2022-07-25T19:51:51.945Z,21.29
2022-07-25T19:54:24.265Z,21.24
2022-07-25T19:56:55.807Z,21.18
2022-07-25T19:59:27.266Z,21.11
2022-07-25T20:01:59.002Z,21.12
2022-07-25T20:04:30.948Z,21.12
2022-07-25T20:07:03.201Z,21.08
2022-07-25T20:09:34.844Z,21.02
2022-07-25T20:12:06.625Z,21.06
2022-07-25T20:14:38.110Z,21.05
2022-07-25T20:17:10.792Z,21.00
2022-07-25T20:19:42.378Z,21.01
2022-07-25T20:22:13.698Z,21.05
2022-07-25T20:24:45.018Z,21.01
2022-07-25T20:27:16.499Z,20.96
2022-07-25T20:29:47.905Z,20.96
2022-07-25T20:32:19.258Z,20.96
2022-07-25T20:34:52.446Z,20.93
2022-07-25T20:37:23.926Z,20.86
2022-07-25T20:39:56.637Z,20.83
2022-07-25T20:42:28.046Z,20.78
2022-07-25T20:44:59.325Z,20.73
2022-07-25T20:47:30.629Z,20.71
2022-07-25T20:50:02.116Z,20.75
2022-07-25T20:52:33.547Z,20.73
2022-07-25T20:55:07.999Z,20.74
2022-07-25T20:57:39.331Z,20.81
2022-07-25T21:00:11.439Z,20.76
2022-07-25T21:02:42.952Z,20.68
2022-07-25T21:05:14.311Z,20.55
2022-07-25T21:07:45.702Z,20.51
2022-07-25T21:10:17.371Z,20.42
2022-07-25T21:12:48.862Z,20.36
2022-07-25T21:15:20.213Z,20.24
2022-07-25T21:17:51.670Z,20.26
2022-07-25T21:20:23.021Z,20.15
2022-07-25T21:22:55.257Z,20.10
2022-07-25T21:25:26.645Z,20.07
2022-07-25T21:27:57.943Z,19.98
2022-07-25T21:30:29.372Z,19.98
2022-07-25T21:33:01.121Z,19.96
2022-07-25T21:35:32.627Z,19.87
2022-07-25T21:38:27.365Z,19.78
2022-07-25T21:41:00.786Z,19.81
2022-07-25T21:43:32.101Z,19.75
2022-07-25T21:46:03.583Z,19.66
2022-07-25T21:49:05.337Z,19.67
2022-07-25T21:51:40.341Z,19.61
2022-07-25T21:54:12.366Z,19.48
2022-07-25T21:56:43.696Z,19.52
2022-07-25T21:59:15.048Z,19.44
2022-07-25T22:01:46.408Z,19.40
2022-07-25T22:04:18.014Z,19.36
2022-07-25T22:06:49.405Z,19.30
2022-07-25T22:09:21.062Z,19.25
2022-07-25T22:11:54.501Z,19.16
2022-07-25T22:14:26.092Z,19.10
2022-07-25T22:16:57.496Z,19.12
2022-07-25T22:19:28.822Z,19.07
2022-07-25T22:22:00.577Z,19.02
2022-07-25T22:24:32.139Z,18.99
2022-07-25T22:27:03.526Z,18.97
2022-07-25T22:29:34.942Z,18.94
2022-07-25T22:32:06.504Z,18.95
2022-07-25T22:34:37.829Z,18.94
2022-07-25T22:37:09.118Z,18.92
2022-07-25T22:39:40.453Z,18.97
2022-07-25T22:42:11.790Z,18.98
2022-07-25T22:44:47.657Z,19.00
2022-07-25T22:47:18.965Z,19.00
2022-07-25T22:49:50.266Z,18.95
2022-07-25T22:52:21.588Z,19.01
2022-07-25T22:54:53.001Z,19.01
2022-07-25T22:57:24.328Z,19.01
2022-07-25T22:59:55.628Z,19.01
2022-07-25T23:02:27.137Z,18.93
2022-07-25T23:04:58.493Z,18.93
2022-07-25T23:07:29.868Z,18.97
2022-07-25T23:10:02.018Z,18.93
2022-07-25T23:12:33.824Z,18.89
2022-07-25T23:15:05.775Z,18.88
2022-07-25T23:17:37.082Z,18.83
2022-07-25T23:20:09.175Z,18.73
2022-07-25T23:22:40.565Z,18.73
2022-07-25T23:25:12.757Z,18.67
2022-07-25T23:27:44.397Z,18.56
2022-07-25T23:30:16.879Z,18.57
2022-07-25T23:32:48.344Z,18.46
2022-07-25T23:35:19.702Z,18.44
2022-07-25T23:37:51.006Z,18.38
2022-07-25T23:40:22.399Z,18.34
2022-07-25T23:42:54.373Z,18.24
2022-07-25T23:45:27.812Z,18.26
2022-07-25T23:47:59.298Z,18.22
2022-07-25T23:50:30.712Z,18.13
2022-07-25T23:53:02.031Z,18.11
2022-07-25T23:55:33.334Z,18.06
2022-07-25T23:58:04.707Z,18.01
